createdAt,value
2018-06-24T00:02:05.556Z,96.16
2018-06-24T00:05:10.299Z,96.43
2018-06-24T00:08:14.645Z,96.16
2018-06-24T00:11:19.165Z,96.32
2018-06-24T00:14:23.550Z,96.27
2018-06-24T00:17:27.885Z,96.24
2018-06-24T00:20:32.177Z,95.64
2018-06-24T00:23:36.554Z,95.31
2018-06-24T00:26:41.290Z,95.52
2018-06-24T00:29:45.671Z,95.08
2018-06-24T00:32:50.070Z,94.92
2018-06-24T00:35:54.496Z,95.38
2018-06-24T00:38:58.843Z,94.39
2018-06-24T00:42:03.271Z,94.39
2018-06-24T00:45:07.731Z,94.06
2018-06-24T00:48:12.133Z,93.60
2018-06-24T00:51:16.427Z,93.77
2018-06-24T00:54:20.765Z,94.17
2018-06-24T00:57:25.165Z,94.24
2018-06-24T01:00:29.445Z,94.04
2018-06-24T01:03:33.802Z,93.86
2018-06-24T01:06:38.307Z,93.81
2018-06-24T01:09:42.641Z,93.77
2018-06-24T01:12:47.221Z,94.23
2018-06-24T01:15:51.599Z,94.06
2018-06-24T01:18:55.999Z,94.40
2018-06-24T01:22:00.364Z,94.01
2018-06-24T01:25:05.009Z,94.45
2018-06-24T01:28:09.865Z,94.45
2018-06-24T01:31:14.220Z,95.05
2018-06-24T01:34:18.752Z,94.92
2018-06-24T01:37:23.272Z,95.40
2018-06-24T01:40:27.609Z,95.01
2018-06-24T01:43:32.040Z,94.85
2018-06-24T01:46:36.471Z,95.01
2018-06-24T01:49:40.830Z,94.99
2018-06-24T01:52:45.385Z,94.80
2018-06-24T01:55:49.728Z,94.73
2018-06-24T01:58:54.203Z,95.01
2018-06-24T02:01:58.666Z,94.72
2018-06-24T02:05:03.116Z,94.93
2018-06-24T02:08:07.621Z,94.72
2018-06-24T02:11:12.065Z,94.58
2018-06-24T02:14:16.454Z,94.75
2018-06-24T02:17:20.995Z,94.59
2018-06-24T02:20:25.328Z,94.84
2018-06-24T02:23:29.653Z,94.78
2018-06-24T02:26:34.150Z,95.37
2018-06-24T02:29:38.721Z,94.96
2018-06-24T02:32:43.990Z,95.68
2018-06-24T02:35:48.358Z,95.86
2018-06-24T02:38:53.189Z,96.91
2018-06-24T02:41:57.601Z,97.31
2018-06-24T02:45:02.086Z,97.74
2018-06-24T02:48:06.755Z,97.77
2018-06-24T02:51:11.628Z,98.19
2018-06-24T02:54:16.135Z,98.49
2018-06-24T02:57:20.750Z,98.45
2018-06-24T03:00:25.384Z,98.65
2018-06-24T03:03:29.877Z,98.30
2018-06-24T03:06:34.205Z,98.49
2018-06-24T03:09:38.541Z,98.79
2018-06-24T03:12:42.863Z,99.19
2018-06-24T03:15:47.177Z,99.11
2018-06-24T03:18:51.478Z,99.27
2018-06-24T03:21:55.909Z,99.32
2018-06-24T03:25:00.258Z,99.62
2018-06-24T03:28:04.935Z,99.55
2018-06-24T03:31:09.141Z,99.46
2018-06-24T03:34:13.425Z,98.98
2018-06-24T03:37:17.848Z,99.18
2018-06-24T03:40:22.293Z,99.41
2018-06-24T03:43:26.828Z,99.21
2018-06-24T03:46:31.166Z,99.28
2018-06-24T03:49:35.485Z,99.07
2018-06-24T03:52:39.923Z,99.20
2018-06-24T03:55:44.348Z,99.49
2018-06-24T03:58:48.724Z,98.61
2018-06-24T04:01:53.163Z,98.40
2018-06-24T04:04:57.486Z,98.74
2018-06-24T04:08:01.779Z,98.81
2018-06-24T04:11:06.102Z,98.30
2018-06-24T04:14:10.574Z,98.71
2018-06-24T04:17:15.006Z,99.07
2018-06-24T04:20:19.376Z,98.98
2018-06-24T04:23:23.657Z,98.66
2018-06-24T04:26:28.010Z,98.38
2018-06-24T04:29:32.335Z,97.73
2018-06-24T04:32:36.673Z,98.04
2018-06-24T04:35:41.062Z,98.00
2018-06-24T04:38:45.377Z,97.87
2018-06-24T04:41:49.676Z,97.61
2018-06-24T04:44:53.997Z,97.22
2018-06-24T04:47:58.340Z,96.89
2018-06-24T04:51:02.674Z,97.13
2018-06-24T04:54:06.988Z,96.60
2018-06-24T04:57:11.352Z,96.36
2018-06-24T05:00:15.758Z,96.17
2018-06-24T05:03:20.211Z,95.78
2018-06-24T05:06:25.263Z,96.42
2018-06-24T05:09:29.945Z,94.99
2018-06-24T05:12:34.256Z,95.50
2018-06-24T05:15:38.556Z,95.57
2018-06-24T05:18:42.980Z,94.43
2018-06-24T05:21:47.400Z,94.25
2018-06-24T05:24:51.776Z,94.69
2018-06-24T05:27:56.133Z,94.51
2018-06-24T05:31:00.508Z,94.26
2018-06-24T05:34:05.022Z,94.89
2018-06-24T05:37:09.418Z,95.31
2018-06-24T05:40:13.857Z,95.10
2018-06-24T05:43:18.165Z,96.16
2018-06-24T05:46:22.477Z,96.62
2018-06-24T05:49:26.840Z,97.33
2018-06-24T05:52:31.230Z,97.53
2018-06-24T05:55:35.637Z,98.13
2018-06-24T05:58:40.130Z,97.71
2018-06-24T06:01:44.481Z,97.71
2018-06-24T06:04:48.639Z,97.86
2018-06-24T06:07:53.069Z,97.21
2018-06-24T06:10:57.391Z,97.73
2018-06-24T06:14:01.675Z,97.16
2018-06-24T06:17:06.013Z,96.98
2018-06-24T06:20:10.856Z,95.55
2018-06-24T06:23:15.294Z,95.44
2018-06-24T06:26:19.569Z,95.60
2018-06-24T06:29:23.936Z,94.89
2018-06-24T06:32:28.473Z,93.79
2018-06-24T06:35:32.877Z,94.55
2018-06-24T06:38:37.269Z,93.46
2018-06-24T06:41:41.685Z,93.85
2018-06-24T06:44:46.056Z,93.39
2018-06-24T06:47:50.383Z,93.16
2018-06-24T06:50:54.788Z,92.52
2018-06-24T06:53:59.420Z,91.75
2018-06-24T06:57:03.779Z,92.28
2018-06-24T07:00:08.367Z,92.84
2018-06-24T07:03:12.838Z,93.48
2018-06-24T07:06:16.947Z,94.70
2018-06-24T07:09:21.509Z,95.03
2018-06-24T07:12:25.898Z,94.07
2018-06-24T07:15:30.346Z,93.96
2018-06-24T07:18:34.845Z,94.10
2018-06-24T07:21:39.203Z,93.64
2018-06-24T07:24:43.545Z,93.92
2018-06-24T07:27:47.920Z,94.14
2018-06-24T07:30:52.300Z,94.67
2018-06-24T07:33:56.604Z,94.28
2018-06-24T07:37:01.104Z,95.09
2018-06-24T07:40:05.524Z,94.78
2018-06-24T07:43:12.136Z,94.42
2018-06-24T07:46:16.490Z,91.86
2018-06-24T07:49:20.850Z,90.14
2018-06-24T07:52:25.280Z,87.33
2018-06-24T07:55:30.122Z,86.91
2018-06-24T07:58:34.513Z,86.77
2018-06-24T08:01:38.976Z,86.55
2018-06-24T08:04:43.330Z,87.10
2018-06-24T08:07:47.657Z,86.33
2018-06-24T08:10:52.114Z,87.15
2018-06-24T08:13:56.424Z,84.42
2018-06-24T08:17:01.043Z,85.16
2018-06-24T08:20:05.519Z,85.53
2018-06-24T08:23:09.927Z,84.50
2018-06-24T08:26:14.262Z,83.37
2018-06-24T08:29:18.750Z,81.78
2018-06-24T08:32:23.163Z,83.39
2018-06-24T08:35:27.578Z,84.92
2018-06-24T08:38:31.931Z,84.85
2018-06-24T08:41:36.393Z,85.18
2018-06-24T08:44:40.759Z,85.26
2018-06-24T08:47:45.229Z,84.86
2018-06-24T08:50:49.522Z,83.74
2018-06-24T08:53:53.828Z,82.16
2018-06-24T08:56:58.481Z,83.56
2018-06-24T09:00:02.803Z,83.67
2018-06-24T09:03:07.199Z,83.47
2018-06-24T09:06:11.467Z,83.50
2018-06-24T09:09:15.816Z,81.89
2018-06-24T09:12:20.200Z,81.24
2018-06-24T09:15:24.444Z,80.72
2018-06-24T09:18:28.815Z,82.98
2018-06-24T09:21:33.260Z,83.89
2018-06-24T09:24:37.649Z,83.31
2018-06-24T09:27:42.028Z,83.91
2018-06-24T09:30:46.438Z,83.73
2018-06-24T09:33:50.848Z,83.61
2018-06-24T09:36:55.248Z,84.86
2018-06-24T09:39:59.570Z,83.64
2018-06-24T09:43:04.005Z,83.58
2018-06-24T09:46:08.305Z,82.72
2018-06-24T09:49:12.759Z,80.98
2018-06-24T09:52:17.107Z,81.16
2018-06-24T09:55:21.493Z,79.78
2018-06-24T09:58:25.650Z,80.22
2018-06-24T10:01:30.087Z,80.26
2018-06-24T10:04:34.372Z,80.98
2018-06-24T10:07:38.787Z,80.54
2018-06-24T10:10:43.086Z,80.08
2018-06-24T10:13:47.416Z,79.40
2018-06-24T10:16:51.787Z,79.77
2018-06-24T10:19:56.244Z,78.36
2018-06-24T10:23:00.595Z,79.69
2018-06-24T10:26:04.964Z,79.76
2018-06-24T10:29:09.286Z,79.29
2018-06-24T10:32:13.612Z,79.16
2018-06-24T10:35:17.915Z,79.10
2018-06-24T10:38:22.312Z,80.12
2018-06-24T10:41:26.634Z,79.17
2018-06-24T10:44:31.058Z,78.70
2018-06-24T10:47:35.493Z,77.33
2018-06-24T10:50:40.319Z,76.10
2018-06-24T10:53:44.729Z,75.86
2018-06-24T10:56:49.070Z,75.92
2018-06-24T10:59:53.445Z,75.88
2018-06-24T11:02:57.800Z,74.42
2018-06-24T11:06:02.154Z,73.83
2018-06-24T11:09:09.848Z,74.55
2018-06-24T11:12:14.170Z,74.71
2018-06-24T11:15:18.559Z,74.40
2018-06-24T11:18:22.908Z,73.80
2018-06-24T11:21:27.371Z,73.19
2018-06-24T11:24:31.893Z,73.80
2018-06-24T11:27:36.336Z,72.11
2018-06-24T11:30:40.601Z,72.54
2018-06-24T11:33:45.041Z,73.32
2018-06-24T11:36:49.510Z,72.91
2018-06-24T11:39:54.009Z,72.19
2018-06-24T11:42:58.694Z,72.35
2018-06-24T11:46:03.174Z,72.60
2018-06-24T11:49:07.545Z,71.51
2018-06-24T11:52:12.738Z,71.23
2018-06-24T11:55:17.062Z,71.59
2018-06-24T11:58:21.389Z,70.50
2018-06-24T12:01:25.754Z,69.23
2018-06-24T12:04:30.083Z,69.76
2018-06-24T12:07:34.499Z,69.64
2018-06-24T12:10:38.768Z,70.58
2018-06-24T12:13:43.228Z,70.69
2018-06-24T12:16:47.842Z,67.41
2018-06-24T12:19:52.168Z,68.41
2018-06-24T12:22:56.592Z,68.66
2018-06-24T12:26:01.363Z,69.41
2018-06-24T12:29:05.960Z,69.19
2018-06-24T12:32:11.366Z,68.66
2018-06-24T12:35:15.666Z,68.83
2018-06-24T12:38:20.092Z,70.02
2018-06-24T12:41:24.532Z,67.21
2018-06-24T12:44:29.050Z,68.05
2018-06-24T12:47:33.503Z,66.90
2018-06-24T12:50:38.154Z,66.22
2018-06-24T12:53:42.598Z,64.97
2018-06-24T12:56:46.948Z,65.91
2018-06-24T12:59:51.411Z,66.80
2018-06-24T13:02:55.683Z,66.49
2018-06-24T13:06:00.060Z,66.35
2018-06-24T13:09:06.425Z,65.39
2018-06-24T13:12:10.772Z,65.52
2018-06-24T13:15:15.551Z,65.17
2018-06-24T13:18:20.065Z,64.32
2018-06-24T13:21:24.368Z,63.68
2018-06-24T13:24:28.929Z,63.35
2018-06-24T13:27:33.337Z,65.17
2018-06-24T13:30:37.747Z,65.76
2018-06-24T13:33:42.204Z,65.65
2018-06-24T13:36:46.803Z,66.92
2018-06-24T13:39:51.350Z,67.10
2018-06-24T13:42:56.158Z,64.44
2018-06-24T13:46:00.460Z,65.56
2018-06-24T13:49:05.423Z,65.44
2018-06-24T13:52:09.727Z,66.19
2018-06-24T13:55:14.053Z,65.54
2018-06-24T13:58:18.398Z,63.76
2018-06-24T14:01:22.904Z,64.26
2018-06-24T14:04:27.275Z,65.51
2018-06-24T14:07:31.849Z,65.46
2018-06-24T14:10:36.209Z,63.37
2018-06-24T14:13:40.786Z,63.53
2018-06-24T14:16:45.066Z,63.33
2018-06-24T14:19:49.476Z,62.96
2018-06-24T14:22:54.054Z,64.43
2018-06-24T14:25:58.509Z,63.67
2018-06-24T14:29:03.431Z,63.14
2018-06-24T14:32:07.747Z,62.95
2018-06-24T14:35:12.079Z,63.33
2018-06-24T14:38:17.066Z,63.97
2018-06-24T14:41:21.558Z,63.50
2018-06-24T14:44:26.304Z,63.67
2018-06-24T14:47:30.602Z,63.10
2018-06-24T14:50:35.203Z,62.42
2018-06-24T14:53:41.050Z,63.83
2018-06-24T14:56:45.490Z,62.73
2018-06-24T14:59:50.263Z,64.05
2018-06-24T15:02:54.905Z,63.55
2018-06-24T15:06:00.094Z,62.30
2018-06-24T15:09:06.593Z,62.26
2018-06-24T15:12:11.276Z,61.52
2018-06-24T15:15:15.695Z,61.21
2018-06-24T15:18:19.999Z,59.01
2018-06-24T15:21:24.439Z,61.08
2018-06-24T15:24:28.857Z,61.04
2018-06-24T15:27:33.431Z,61.18
2018-06-24T15:30:37.827Z,60.39
2018-06-24T15:33:42.186Z,58.98
2018-06-24T15:36:47.308Z,60.08
2018-06-24T15:39:51.752Z,60.32
2018-06-24T15:42:56.132Z,61.12
2018-06-24T15:46:00.569Z,61.86
2018-06-24T15:49:05.032Z,61.85
2018-06-24T15:52:09.430Z,62.04
2018-06-24T15:55:13.827Z,62.31
2018-06-24T15:58:18.370Z,63.54
2018-06-24T16:01:22.776Z,63.99
2018-06-24T16:04:27.172Z,64.42
2018-06-24T16:07:31.552Z,65.07
2018-06-24T16:10:35.964Z,65.49
2018-06-24T16:13:40.475Z,66.22
2018-06-24T16:16:44.827Z,66.07
2018-06-24T16:19:49.284Z,67.01
2018-06-24T16:22:53.631Z,67.07
2018-06-24T16:25:58.129Z,67.71
2018-06-24T16:29:02.506Z,69.06
2018-06-24T16:32:06.954Z,68.70
2018-06-24T16:35:11.435Z,69.24
2018-06-24T16:38:15.762Z,69.00
2018-06-24T16:41:20.500Z,69.02
2018-06-24T16:44:24.921Z,69.45
2018-06-24T16:47:29.307Z,69.42
2018-06-24T16:50:34.020Z,70.20
2018-06-24T16:53:38.409Z,69.99
2018-06-24T16:56:42.841Z,70.40
2018-06-24T16:59:47.310Z,70.53
2018-06-24T17:02:51.748Z,70.96
2018-06-24T17:05:56.302Z,71.78
2018-06-24T17:09:00.592Z,72.46
2018-06-24T17:12:04.970Z,72.50
2018-06-24T17:15:09.357Z,72.10
2018-06-24T17:18:13.680Z,73.84
2018-06-24T17:21:18.355Z,73.46
2018-06-24T17:24:23.007Z,73.92
2018-06-24T17:27:27.489Z,73.94
2018-06-24T17:30:32.400Z,75.04
2018-06-24T17:33:36.820Z,75.65
2018-06-24T17:36:41.548Z,75.59
2018-06-24T17:39:45.868Z,76.08
2018-06-24T17:42:50.217Z,75.98
2018-06-24T17:45:55.013Z,77.52
2018-06-24T17:48:59.335Z,77.61
2018-06-24T17:52:03.720Z,77.72
2018-06-24T17:55:08.135Z,77.70
2018-06-24T17:58:12.683Z,78.56
2018-06-24T18:01:17.032Z,78.37
2018-06-24T18:04:21.615Z,78.70
2018-06-24T18:07:25.968Z,79.07
2018-06-24T18:10:30.405Z,79.31
2018-06-24T18:13:35.087Z,79.04
2018-06-24T18:16:39.410Z,79.47
2018-06-24T18:19:43.988Z,80.33
2018-06-24T18:22:48.446Z,79.83
2018-06-24T18:25:52.764Z,80.74
2018-06-24T18:28:57.318Z,80.05
2018-06-24T18:32:01.706Z,80.60
2018-06-24T18:35:06.091Z,80.30
2018-06-24T18:38:10.457Z,80.32
2018-06-24T18:41:14.862Z,81.30
2018-06-24T18:44:19.310Z,81.69
2018-06-24T18:47:23.628Z,81.41
2018-06-24T18:50:28.123Z,82.54
2018-06-24T18:53:32.581Z,81.90
2018-06-24T18:56:37.126Z,82.92
2018-06-24T18:59:41.477Z,83.31
2018-06-24T19:02:46.080Z,83.00
2018-06-24T19:05:51.518Z,82.89
2018-06-24T19:08:55.879Z,83.94
2018-06-24T19:12:00.031Z,84.03
2018-06-24T19:15:04.459Z,84.54
2018-06-24T19:18:09.247Z,83.37
2018-06-24T19:21:13.627Z,84.55
2018-06-24T19:24:17.996Z,84.42
2018-06-24T19:27:22.352Z,84.94
2018-06-24T19:30:26.790Z,84.64
2018-06-24T19:33:31.190Z,85.22
2018-06-24T19:36:35.624Z,85.20
2018-06-24T19:39:40.022Z,85.97
2018-06-24T19:42:44.361Z,86.35
2018-06-24T19:45:48.665Z,86.30
2018-06-24T19:48:53.094Z,86.71
2018-06-24T19:51:57.542Z,85.99
2018-06-24T19:55:01.935Z,86.20
2018-06-24T19:58:06.401Z,86.29
2018-06-24T20:01:10.774Z,86.85
2018-06-24T20:04:15.197Z,86.86
2018-06-24T20:07:19.662Z,86.77
2018-06-24T20:10:24.084Z,86.78
2018-06-24T20:13:28.614Z,87.28
2018-06-24T20:16:33.059Z,87.37
2018-06-24T20:19:37.539Z,88.03
2018-06-24T20:22:41.858Z,88.34
2018-06-24T20:25:46.266Z,88.46
2018-06-24T20:28:50.566Z,88.68
2018-06-24T20:31:55.106Z,89.47
2018-06-24T20:34:59.436Z,89.81
2018-06-24T20:38:03.803Z,90.13
2018-06-24T20:41:08.221Z,90.18
2018-06-24T20:44:12.619Z,91.34
2018-06-24T20:47:16.913Z,90.98
2018-06-24T20:50:21.332Z,91.58
2018-06-24T20:53:25.717Z,91.87
2018-06-24T20:56:30.121Z,92.32
2018-06-24T20:59:34.474Z,92.75
2018-06-24T21:02:39.003Z,92.39
2018-06-24T21:05:43.527Z,92.89
2018-06-24T21:08:47.904Z,93.00
2018-06-24T21:11:52.240Z,93.28
2018-06-24T21:14:56.676Z,93.11
2018-06-24T21:18:01.066Z,93.57
2018-06-24T21:21:05.506Z,93.49
2018-06-24T21:24:09.934Z,93.90
2018-06-24T21:27:14.242Z,94.28
2018-06-24T21:30:18.562Z,94.14
2018-06-24T21:33:22.897Z,94.18
2018-06-24T21:36:27.310Z,94.58
2018-06-24T21:39:31.747Z,94.95
2018-06-24T21:42:36.141Z,94.79
2018-06-24T21:45:40.429Z,94.64
2018-06-24T21:48:44.743Z,95.04
2018-06-24T21:51:49.093Z,95.20
2018-06-24T21:54:53.558Z,94.64
2018-06-24T21:57:57.933Z,94.39
2018-06-24T22:01:02.297Z,94.56
2018-06-24T22:04:06.651Z,94.47
2018-06-24T22:07:11.037Z,94.25
2018-06-24T22:10:15.302Z,94.21
2018-06-24T22:13:19.690Z,94.14
2018-06-24T22:16:24.080Z,94.27
2018-06-24T22:19:28.441Z,93.84
2018-06-24T22:22:32.827Z,94.01
2018-06-24T22:25:37.116Z,93.57
2018-06-24T22:28:41.609Z,93.94
2018-06-24T22:31:45.945Z,93.70
2018-06-24T22:34:50.305Z,93.61
2018-06-24T22:37:54.649Z,93.79
2018-06-24T22:40:58.948Z,93.72
2018-06-24T22:44:04.347Z,94.17
2018-06-24T22:47:09.622Z,94.09
2018-06-24T22:50:14.175Z,93.88
2018-06-24T22:53:18.457Z,93.90
2018-06-24T22:56:22.909Z,93.56
2018-06-24T22:59:44.370Z,94.04
2018-06-24T23:02:48.872Z,94.30
2018-06-24T23:05:53.285Z,94.56
2018-06-24T23:08:58.240Z,94.45
2018-06-24T23:12:02.539Z,94.48
2018-06-24T23:15:08.259Z,94.84
2018-06-24T23:18:12.532Z,94.83
2018-06-24T23:21:16.940Z,94.91
2018-06-24T23:24:21.239Z,95.17
2018-06-24T23:27:25.546Z,95.20
2018-06-24T23:30:29.904Z,95.20
2018-06-24T23:33:34.221Z,95.09
2018-06-24T23:36:38.548Z,95.43
2018-06-24T23:39:42.982Z,94.94
2018-06-24T23:42:47.261Z,95.42
2018-06-24T23:45:51.667Z,95.15
2018-06-24T23:48:55.948Z,95.39
2018-06-24T23:52:00.406Z,95.41
2018-06-24T23:55:04.898Z,95.27
2018-06-24T23:58:09.162Z,95.30
